River Of Ponds, Canada
Current Conditions -  °F | °C
As of 5:00 AM on Friday 31 Oct 2014 (Local Time) from CWDH Reporting Station
Scattered Clouds Scattered Clouds  
Wind Chill:   Ceiling: Unl
Heat Index:   Visibility: 9mi
Dew Point:   Wind: 10mph
Humidity: 73%   Direction: 290°WNW
Pressure: 29.72"   Gusts: NA
Location:  50.53°N, 57.38°W
Report Text: CWDH 310700Z AUTO 29009KT 9SM SCT046 04/00 A2972 RMK SLP065 T00450001 70067 WSI/SWOB
Loading
Personal Weather Stations






























Interactive Weather Map
Tropical Storm Tracking
New forecast layout! Learn more

10-Day Weather Forecast

Advertisements
Track Severe Weather on mobile